Albion, California
Current Conditions -  °F | °C
As of 7:56 AM on Thursday 23 Oct 2014 (Local Time) from KUKI Reporting Station
Overcast Overcast  
Wind Chill: 14°   Ceiling: 2700
Heat Index: 14°   Visibility: 10mi
Dew Point: 12°   Wind: 0mph
Humidity: 84%   Direction: NA
Pressure: 30.05"   Gusts: NA
Location:  39.22°N, 123.77°W
Report Text: KUKI 231456Z AUTO 00000KT 10SM OVC027 14/12 A3005 RMK AO2 SLP169 60000 T01440117 51008
Loading
Personal Weather Stations






























Interactive Weather Map
Tropical Storm Tracking
New forecast layout! Learn more

10-Day Weather Forecast

Advertisements
Track Severe Weather on mobile